createdAt,value
2022-11-05T00:00:37.257Z,11.67
2022-11-05T00:03:23.115Z,7.80
2022-11-05T00:06:10.161Z,14.27
2022-11-05T00:08:55.453Z,9.47
2022-11-05T00:11:45.117Z,12.37
2022-11-05T00:14:30.561Z,11.43
2022-11-05T00:16:57.802Z,11.17
2022-11-05T00:19:25.213Z,11.50
2022-11-05T00:22:10.685Z,8.17
2022-11-05T00:24:56.273Z,13.57
2022-11-05T00:27:23.210Z,10.13
2022-11-05T00:29:50.260Z,11.87
2022-11-05T00:32:17.307Z,8.17
2022-11-05T00:34:44.152Z,9.63
2022-11-05T00:37:10.893Z,9.63
2022-11-05T00:39:37.735Z,7.03
2022-11-05T00:42:23.169Z,13.33
2022-11-05T00:45:02.285Z,9.90
2022-11-05T00:47:48.659Z,10.40
2022-11-05T00:50:15.648Z,10.23
2022-11-05T00:52:57.901Z,7.13
2022-11-05T00:55:38.613Z,7.10
2022-11-05T00:58:18.366Z,6.97
2022-11-05T01:00:52.080Z,9.90
2022-11-05T01:03:20.909Z,5.23
2022-11-05T01:05:52.386Z,8.40
2022-11-05T01:08:20.601Z,6.10
2022-11-05T01:10:49.614Z,8.67
2022-11-05T01:13:19.533Z,8.17
2022-11-05T01:15:48.356Z,8.00
2022-11-05T01:18:15.133Z,4.87
2022-11-05T01:20:41.940Z,9.37
2022-11-05T01:23:13.311Z,7.07
2022-11-05T01:25:44.427Z,9.23
2022-11-05T01:28:11.258Z,7.30
2022-11-05T01:30:38.414Z,9.63
2022-11-05T01:33:05.373Z,5.60
2022-11-05T01:35:32.332Z,5.70
2022-11-05T01:37:59.359Z,12.33
2022-11-05T01:40:26.395Z,5.53
2022-11-05T01:42:53.238Z,9.60
2022-11-05T01:45:26.164Z,9.47
2022-11-05T01:48:09.241Z,10.83
2022-11-05T01:50:39.585Z,8.03
2022-11-05T01:53:20.664Z,7.93
2022-11-05T01:56:26.041Z,6.37
2022-11-05T01:59:12.150Z,7.90
2022-11-05T02:01:39.286Z,9.20
2022-11-05T02:04:10.206Z,6.47
2022-11-05T02:06:46.225Z,8.53
2022-11-05T02:09:21.067Z,4.73
2022-11-05T02:11:48.739Z,7.03
2022-11-05T02:14:15.571Z,5.23
2022-11-05T02:16:50.264Z,3.40
2022-11-05T02:19:51.031Z,5.83
2022-11-05T02:22:53.107Z,9.90
2022-11-05T02:25:29.177Z,6.83
2022-11-05T02:28:14.783Z,5.83
2022-11-05T02:31:20.013Z,8.50
2022-11-05T02:34:12.157Z,8.83
2022-11-05T02:36:50.227Z,5.30
2022-11-05T02:39:54.422Z,3.67
2022-11-05T02:42:59.820Z,7.93
2022-11-05T02:45:41.731Z,6.57
2022-11-05T02:48:23.538Z,6.00
2022-11-05T02:51:04.287Z,5.53
2022-11-05T02:53:41.449Z,7.67
2022-11-05T02:56:21.504Z,9.47
2022-11-05T02:58:48.333Z,8.40
2022-11-05T03:01:16.130Z,7.00
2022-11-05T03:03:48.928Z,11.30
2022-11-05T03:06:34.496Z,8.10
2022-11-05T03:09:14.834Z,5.27
2022-11-05T03:12:09.658Z,5.10
2022-11-05T03:14:51.443Z,6.50
2022-11-05T03:17:30.252Z,4.83
2022-11-05T03:20:29.675Z,8.63
2022-11-05T03:23:00.870Z,9.77
2022-11-05T03:25:30.292Z,11.63
2022-11-05T03:28:00.446Z,6.67
2022-11-05T03:30:27.292Z,10.77
2022-11-05T03:33:07.656Z,8.03
2022-11-05T03:35:37.442Z,8.47
2022-11-05T03:38:10.561Z,7.87
2022-11-05T03:40:37.617Z,5.90
2022-11-05T03:43:09.743Z,9.03
2022-11-05T03:46:04.948Z,10.60
2022-11-05T03:48:33.802Z,10.23
2022-11-05T03:51:08.598Z,7.17
2022-11-05T03:53:44.226Z,12.90
2022-11-05T03:56:18.561Z,8.47
2022-11-05T03:58:46.223Z,7.90
2022-11-05T04:01:13.031Z,8.93
2022-11-05T04:03:40.609Z,7.80
2022-11-05T04:06:27.036Z,8.90
2022-11-05T04:09:13.209Z,11.00
2022-11-05T04:11:58.463Z,6.97
2022-11-05T04:14:26.360Z,8.80
2022-11-05T04:17:11.608Z,12.50
2022-11-05T04:19:59.195Z,8.07
2022-11-05T04:22:45.775Z,11.27
2022-11-05T04:25:13.595Z,8.57
2022-11-05T04:27:40.649Z,14.40
2022-11-05T04:30:25.001Z,9.17
2022-11-05T04:33:11.134Z,10.63
2022-11-05T04:35:43.417Z,7.33
2022-11-05T04:38:12.684Z,9.83
2022-11-05T04:40:39.508Z,8.67
2022-11-05T04:43:10.631Z,13.50
2022-11-05T04:45:42.329Z,8.50
2022-11-05T04:48:09.212Z,10.10
2022-11-05T04:50:36.058Z,9.73
2022-11-05T04:53:03.051Z,7.57
2022-11-05T04:55:29.811Z,11.43
2022-11-05T04:57:56.591Z,10.07
2022-11-05T05:00:23.982Z,12.23
2022-11-05T05:02:51.051Z,17.80
2022-11-05T05:05:17.814Z,15.43
2022-11-05T05:07:44.526Z,16.07
2022-11-05T05:10:11.730Z,14.30
2022-11-05T05:12:38.463Z,14.80
2022-11-05T05:15:05.947Z,12.33
2022-11-05T05:17:32.917Z,16.60
2022-11-05T05:20:18.062Z,20.87
2022-11-05T05:22:51.577Z,12.87
2022-11-05T05:25:18.907Z,17.97
2022-11-05T05:27:45.604Z,14.53
2022-11-05T05:30:12.639Z,13.73
2022-11-05T05:32:39.390Z,16.87
2022-11-05T05:35:06.407Z,14.30
2022-11-05T05:37:33.246Z,14.83
2022-11-05T05:39:59.955Z,13.87
2022-11-05T05:42:27.431Z,14.67
2022-11-05T05:44:54.353Z,12.03
2022-11-05T05:47:23.840Z,11.67
2022-11-05T05:49:50.654Z,12.60
2022-11-05T05:52:17.598Z,12.17
2022-11-05T05:54:45.131Z,14.47
2022-11-05T05:57:11.788Z,13.40
2022-11-05T05:59:38.504Z,13.40
2022-11-05T06:02:05.311Z,14.10
2022-11-05T06:04:32.851Z,11.60
2022-11-05T06:06:59.766Z,16.60
2022-11-05T06:09:26.574Z,14.33
2022-11-05T06:11:53.246Z,14.37
2022-11-05T06:14:19.934Z,18.03
2022-11-05T06:16:46.699Z,13.63
2022-11-05T06:19:13.352Z,13.07
2022-11-05T06:21:40.040Z,13.60
2022-11-05T06:24:07.562Z,14.27
2022-11-05T06:26:34.356Z,13.23
2022-11-05T06:29:01.150Z,18.17
2022-11-05T06:31:28.916Z,15.67
2022-11-05T06:33:55.647Z,13.03
2022-11-05T06:36:22.480Z,16.67
2022-11-05T06:38:49.462Z,13.50
2022-11-05T06:41:16.195Z,20.40
2022-11-05T06:43:43.588Z,17.80
2022-11-05T06:46:11.247Z,16.37
2022-11-05T06:48:38.850Z,17.57
2022-11-05T06:51:06.585Z,17.87
2022-11-05T06:53:33.447Z,15.00
2022-11-05T06:56:07.472Z,12.57
2022-11-05T06:58:34.573Z,15.77
2022-11-05T07:01:09.381Z,16.87
2022-11-05T07:03:38.343Z,16.77
2022-11-05T07:06:06.743Z,13.77
2022-11-05T07:08:34.597Z,12.73
2022-11-05T07:11:03.515Z,18.83
2022-11-05T07:13:30.309Z,15.00
2022-11-05T07:15:57.467Z,15.40
2022-11-05T07:18:24.745Z,14.33
2022-11-05T07:20:51.519Z,16.23
2022-11-05T07:23:18.256Z,16.03
2022-11-05T07:25:45.919Z,17.67
2022-11-05T07:28:24.778Z,13.97
2022-11-05T07:30:59.412Z,15.30
2022-11-05T07:33:26.257Z,15.33
2022-11-05T07:35:55.565Z,12.53
2022-11-05T07:38:31.518Z,16.07
2022-11-05T07:41:01.529Z,15.80
2022-11-05T07:43:28.238Z,14.17
2022-11-05T07:45:58.005Z,10.83
2022-11-05T07:48:24.778Z,12.27
2022-11-05T07:50:52.908Z,12.23
2022-11-05T07:53:20.772Z,10.43
2022-11-05T07:55:47.588Z,8.37
2022-11-05T07:58:15.079Z,10.87
2022-11-05T08:00:41.991Z,13.40
2022-11-05T08:03:14.066Z,8.40
2022-11-05T08:05:46.211Z,11.33
2022-11-05T08:08:15.238Z,10.27
2022-11-05T08:10:42.234Z,8.03
2022-11-05T08:13:09.892Z,11.50
2022-11-05T08:15:37.557Z,7.77
2022-11-05T08:18:09.054Z,10.90
2022-11-05T08:20:38.237Z,10.90
2022-11-05T08:23:06.424Z,14.00
2022-11-05T08:25:34.197Z,11.30
2022-11-05T08:28:10.620Z,8.47
2022-11-05T08:30:37.923Z,8.73
2022-11-05T08:33:07.706Z,14.90
2022-11-05T08:35:55.837Z,10.50
2022-11-05T08:38:31.577Z,12.13
2022-11-05T08:40:58.767Z,13.13
2022-11-05T08:43:26.288Z,9.00
2022-11-05T08:45:54.373Z,13.53
2022-11-05T08:48:21.347Z,12.00
2022-11-05T08:50:49.176Z,9.53
2022-11-05T08:53:16.416Z,10.83
2022-11-05T08:55:44.237Z,11.20
2022-11-05T08:58:17.903Z,11.30
2022-11-05T09:00:47.454Z,10.87
2022-11-05T09:03:18.147Z,11.07
2022-11-05T09:05:45.318Z,10.63
2022-11-05T09:08:15.905Z,8.43
2022-11-05T09:10:44.869Z,10.33
2022-11-05T09:13:18.280Z,8.63
2022-11-05T09:15:47.652Z,10.03
2022-11-05T09:18:14.848Z,8.83
2022-11-05T09:20:42.779Z,12.37
2022-11-05T09:23:11.182Z,9.90
2022-11-05T09:25:38.858Z,9.93
2022-11-05T09:28:16.203Z,13.77
2022-11-05T09:30:48.192Z,10.47
2022-11-05T09:33:16.409Z,9.30
2022-11-05T09:35:43.289Z,12.27
2022-11-05T09:38:12.170Z,9.00
2022-11-05T09:40:51.248Z,9.93
2022-11-05T09:43:20.953Z,7.07
2022-11-05T09:45:53.362Z,10.50
2022-11-05T09:48:23.804Z,8.37
2022-11-05T09:50:51.242Z,8.27
2022-11-05T09:53:20.056Z,10.07
2022-11-05T09:56:06.675Z,14.37
2022-11-05T09:58:44.284Z,7.83
2022-11-05T10:01:22.048Z,9.87
2022-11-05T10:03:52.064Z,10.57
2022-11-05T10:06:25.021Z,9.93
2022-11-05T10:09:08.349Z,6.37
2022-11-05T10:11:41.994Z,11.03
2022-11-05T10:14:44.953Z,8.80
2022-11-05T10:17:24.689Z,8.30
2022-11-05T10:20:00.098Z,7.40
2022-11-05T10:22:26.954Z,10.00
2022-11-05T10:24:55.390Z,18.13
2022-11-05T10:27:29.903Z,11.10
2022-11-05T10:29:57.623Z,7.40
2022-11-05T10:32:35.153Z,10.83
2022-11-05T10:35:04.787Z,10.70
2022-11-05T10:37:40.525Z,5.83
2022-11-05T10:40:32.314Z,8.33
2022-11-05T10:43:44.389Z,10.53
2022-11-05T10:46:35.887Z,5.43
2022-11-05T10:49:40.809Z,5.40
2022-11-05T10:52:26.152Z,8.07
2022-11-05T10:54:56.233Z,6.13
2022-11-05T10:57:35.065Z,6.43
2022-11-05T11:00:14.988Z,7.93
2022-11-05T11:02:48.092Z,5.80
2022-11-05T11:05:32.744Z,9.57
2022-11-05T11:08:11.739Z,8.73
2022-11-05T11:10:56.113Z,6.17
2022-11-05T11:13:27.386Z,4.30
2022-11-05T11:15:56.814Z,5.37
2022-11-05T11:18:40.097Z,9.03
2022-11-05T11:21:17.866Z,5.60
2022-11-05T11:23:59.559Z,6.80
2022-11-05T11:26:32.799Z,8.90
2022-11-05T11:29:01.984Z,7.57
2022-11-05T11:31:31.181Z,3.73
2022-11-05T11:34:10.360Z,5.47
2022-11-05T11:36:49.275Z,8.20
2022-11-05T11:39:21.092Z,6.60
2022-11-05T11:42:09.977Z,6.57
2022-11-05T11:44:48.599Z,3.37
2022-11-05T11:47:19.424Z,5.00
2022-11-05T11:49:57.150Z,4.83
2022-11-05T11:52:35.068Z,3.77
2022-11-05T11:55:16.495Z,5.27
2022-11-05T11:57:49.397Z,2.97
2022-11-05T12:00:17.710Z,9.27
2022-11-05T12:03:20.035Z,6.30
2022-11-05T12:06:24.793Z,9.53
2022-11-05T12:09:06.437Z,7.87
2022-11-05T12:11:59.570Z,8.93
2022-11-05T12:15:00.970Z,4.03
2022-11-05T12:17:49.635Z,5.53
2022-11-05T12:20:26.714Z,6.53
2022-11-05T12:22:59.620Z,5.03
2022-11-05T12:25:45.328Z,3.17
2022-11-05T12:28:30.778Z,4.47
2022-11-05T12:31:19.653Z,3.47
2022-11-05T12:33:59.745Z,4.83
2022-11-05T12:36:43.054Z,4.77
2022-11-05T12:39:40.562Z,7.47
2022-11-05T12:42:31.889Z,4.57
2022-11-05T12:45:02.382Z,9.77
2022-11-05T12:47:46.986Z,9.97
2022-11-05T12:50:23.647Z,9.77
2022-11-05T12:53:31.989Z,3.53
2022-11-05T12:56:01.116Z,5.87
2022-11-05T12:58:37.571Z,3.70
2022-11-05T13:01:13.168Z,3.90
2022-11-05T13:04:00.159Z,4.40
2022-11-05T13:06:42.121Z,4.00
2022-11-05T13:09:23.505Z,8.27
2022-11-05T13:12:21.861Z,5.77
2022-11-05T13:15:01.378Z,7.13
2022-11-05T13:17:37.042Z,5.30
2022-11-05T13:20:20.845Z,6.70
2022-11-05T13:23:13.583Z,7.17
2022-11-05T13:25:48.134Z,5.93
2022-11-05T13:28:28.493Z,9.43
2022-11-05T13:30:58.751Z,2.90
2022-11-05T13:33:42.445Z,4.20
2022-11-05T13:36:41.765Z,10.03
2022-11-05T13:39:30.088Z,6.87
2022-11-05T13:42:22.206Z,6.93
2022-11-05T13:45:11.319Z,4.13
2022-11-05T13:48:03.028Z,8.03
2022-11-05T13:51:00.896Z,3.00
2022-11-05T13:53:58.681Z,7.13
2022-11-05T13:57:06.815Z,6.33
2022-11-05T13:59:45.921Z,9.73
2022-11-05T14:02:38.927Z,8.30
2022-11-05T14:05:08.560Z,7.57
2022-11-05T14:07:44.961Z,6.60
2022-11-05T14:10:39.227Z,6.63
2022-11-05T14:13:35.210Z,5.10
2022-11-05T14:16:27.843Z,8.83
2022-11-05T14:19:22.823Z,9.87
2022-11-05T14:21:58.128Z,4.67
2022-11-05T14:24:30.947Z,3.87
2022-11-05T14:27:00.999Z,5.23
2022-11-05T14:29:44.985Z,6.33
2022-11-05T14:32:28.874Z,8.60
2022-11-05T14:35:05.172Z,6.73
2022-11-05T14:37:56.254Z,6.33
2022-11-05T14:40:40.417Z,8.50
2022-11-05T14:43:28.145Z,7.23
2022-11-05T14:46:08.942Z,6.70
2022-11-05T14:48:43.469Z,4.40
2022-11-05T14:51:29.448Z,7.57
2022-11-05T14:54:12.345Z,5.70
2022-11-05T14:56:57.304Z,3.63
2022-11-05T14:59:24.504Z,7.07
2022-11-05T15:02:03.883Z,4.03
2022-11-05T15:04:32.154Z,9.20
2022-11-05T15:07:13.173Z,6.70
2022-11-05T15:09:54.427Z,7.10
2022-11-05T15:12:59.129Z,7.63
2022-11-05T15:15:28.793Z,8.53
2022-11-05T15:18:03.886Z,7.57
2022-11-05T15:20:46.806Z,7.10
2022-11-05T15:23:19.726Z,11.17
2022-11-05T15:26:11.935Z,7.90
2022-11-05T15:28:46.555Z,4.20
2022-11-05T15:31:15.650Z,8.73
2022-11-05T15:33:45.680Z,8.43
2022-11-05T15:36:30.776Z,7.13
2022-11-05T15:41:47.018Z,10.90
2022-11-05T15:44:27.665Z,4.83
2022-11-05T15:47:09.123Z,4.20
2022-11-05T15:49:39.749Z,9.20
2022-11-05T15:52:15.284Z,5.80
2022-11-05T15:54:43.288Z,6.63
2022-11-05T15:57:26.161Z,4.77
2022-11-05T15:59:53.548Z,7.93
2022-11-05T16:02:36.649Z,8.13
2022-11-05T16:05:13.237Z,4.87
2022-11-05T16:07:45.221Z,6.30
2022-11-05T16:10:21.763Z,6.80
2022-11-05T16:12:48.588Z,11.27
2022-11-05T16:15:15.177Z,7.90
2022-11-05T16:17:46.998Z,6.50
2022-11-05T16:20:34.784Z,9.00
2022-11-05T16:23:02.744Z,6.47
2022-11-05T16:25:43.268Z,8.23
2022-11-05T16:28:39.030Z,6.77
2022-11-05T16:31:06.228Z,8.07
2022-11-05T16:33:45.976Z,5.53
2022-11-05T16:36:15.453Z,11.47
2022-11-05T16:38:45.485Z,9.10
2022-11-05T16:41:19.745Z,9.23
2022-11-05T16:43:56.730Z,9.97
2022-11-05T16:46:25.675Z,10.80
2022-11-05T16:48:52.438Z,6.93
2022-11-05T16:51:27.427Z,6.93
2022-11-05T16:54:09.912Z,5.23
2022-11-05T16:56:40.326Z,9.67
2022-11-05T16:59:09.921Z,12.43
2022-11-05T17:01:37.485Z,8.43
2022-11-05T17:04:10.403Z,7.53
2022-11-05T17:06:37.768Z,10.07
2022-11-05T17:09:04.585Z,9.67
2022-11-05T17:11:31.676Z,10.60
2022-11-05T17:13:58.664Z,10.93
2022-11-05T17:16:26.995Z,10.43
2022-11-05T17:18:53.802Z,10.90
2022-11-05T17:21:20.673Z,11.43
2022-11-05T17:23:47.595Z,8.57
2022-11-05T17:26:14.457Z,5.60
2022-11-05T17:28:44.057Z,7.17
2022-11-05T17:31:13.275Z,10.03
2022-11-05T17:33:40.391Z,11.60
2022-11-05T17:36:09.566Z,10.77
2022-11-05T17:38:36.357Z,10.43
2022-11-05T17:41:15.052Z,10.40
2022-11-05T17:43:45.890Z,9.30
2022-11-05T17:46:26.520Z,11.07
2022-11-05T17:48:53.367Z,8.90
2022-11-05T17:51:30.489Z,8.57
2022-11-05T17:54:01.099Z,10.13
2022-11-05T17:56:35.086Z,6.93
2022-11-05T17:59:09.277Z,14.87
2022-11-05T18:01:54.484Z,10.83
2022-11-05T18:04:31.068Z,8.33
2022-11-05T18:06:58.213Z,12.73
2022-11-05T18:09:28.301Z,13.87
2022-11-05T18:11:56.830Z,7.60
2022-11-05T18:14:25.210Z,8.93
2022-11-05T18:19:46.094Z,8.17
2022-11-05T18:22:18.541Z,9.40
2022-11-05T18:28:05.720Z,9.53
2022-11-05T18:30:38.690Z,9.00
2022-11-05T18:33:06.065Z,11.17
2022-11-05T18:35:33.825Z,8.60
2022-11-05T18:38:01.094Z,7.20
2022-11-05T18:40:28.750Z,12.63
2022-11-05T18:42:56.143Z,9.27
2022-11-05T18:45:38.724Z,9.10
2022-11-05T18:48:06.033Z,9.53
2022-11-05T18:53:17.065Z,10.63
2022-11-05T18:55:44.680Z,8.97
2022-11-05T18:58:12.094Z,11.67
2022-11-05T19:03:20.767Z,12.07
2022-11-05T19:05:47.600Z,15.37
2022-11-05T19:08:15.003Z,7.17
2022-11-05T19:10:42.157Z,7.83
2022-11-05T19:13:09.006Z,8.53
2022-11-05T19:15:35.729Z,10.27
2022-11-05T19:18:03.097Z,8.47
2022-11-05T19:20:35.085Z,8.00
2022-11-05T19:23:05.454Z,13.17
2022-11-05T19:25:32.378Z,11.83
2022-11-05T19:27:59.199Z,8.93
2022-11-05T19:30:26.114Z,11.27
2022-11-05T19:32:52.949Z,13.40
2022-11-05T19:35:20.035Z,8.13
2022-11-05T19:37:47.031Z,16.07
2022-11-05T19:40:13.845Z,7.57
2022-11-05T19:42:40.640Z,12.40
2022-11-05T19:45:30.336Z,9.00
2022-11-05T19:47:54.964Z,6.27
2022-11-05T19:50:21.830Z,12.17
2022-11-05T19:52:48.763Z,7.23
2022-11-05T19:55:15.551Z,8.30
2022-11-05T19:57:42.303Z,8.13
2022-11-05T20:00:09.558Z,4.70
2022-11-05T20:02:38.179Z,9.87
2022-11-05T20:05:05.725Z,10.33
2022-11-05T20:07:33.527Z,5.13
2022-11-05T20:10:00.238Z,10.23
2022-11-05T20:12:26.968Z,10.60
2022-11-05T20:14:53.746Z,6.40
2022-11-05T20:17:20.612Z,13.63
2022-11-05T20:19:47.455Z,7.20
2022-11-05T20:22:14.293Z,13.60
2022-11-05T20:24:41.028Z,9.67
2022-11-05T20:27:08.115Z,7.47
2022-11-05T20:29:35.917Z,6.97
2022-11-05T20:32:04.032Z,8.80
2022-11-05T20:34:31.777Z,11.20
2022-11-05T20:36:58.627Z,9.93
2022-11-05T20:39:25.487Z,9.50
2022-11-05T20:41:53.075Z,7.57
2022-11-05T20:44:19.978Z,7.83
2022-11-05T20:46:46.892Z,7.33
2022-11-05T20:49:13.710Z,10.10
2022-11-05T20:51:41.541Z,8.07
2022-11-05T20:54:09.721Z,10.17
2022-11-05T20:56:36.526Z,9.47
2022-11-05T20:59:05.450Z,11.30
2022-11-05T21:01:33.497Z,9.23
2022-11-05T21:04:00.534Z,11.00
2022-11-05T21:06:27.483Z,9.57
2022-11-05T21:08:54.626Z,11.50
2022-11-05T21:11:21.708Z,8.77
2022-11-05T21:13:48.924Z,8.93
2022-11-05T21:16:18.696Z,9.13
2022-11-05T21:18:46.422Z,9.33
2022-11-05T21:21:20.395Z,9.10
2022-11-05T21:23:48.637Z,8.80
2022-11-05T21:26:17.039Z,7.63
2022-11-05T21:28:46.763Z,10.03
2022-11-05T21:31:15.140Z,9.07
2022-11-05T21:33:42.394Z,6.30
2022-11-05T21:36:13.168Z,7.50
2022-11-05T21:38:41.814Z,9.87
2022-11-05T21:41:09.970Z,8.10
2022-11-05T21:43:38.661Z,7.47
2022-11-05T21:46:09.843Z,14.37
2022-11-05T21:48:38.286Z,8.33
2022-11-05T21:51:24.021Z,10.30
2022-11-05T21:54:09.380Z,17.03
2022-11-05T21:56:54.959Z,14.80
2022-11-05T21:59:42.297Z,7.67
2022-11-05T22:02:11.369Z,11.53
2022-11-05T22:04:41.624Z,9.60
2022-11-05T22:07:10.326Z,10.17
2022-11-05T22:09:37.551Z,10.73
2022-11-05T22:12:05.117Z,10.43
2022-11-05T22:14:32.501Z,10.43
2022-11-05T22:16:59.900Z,7.83
2022-11-05T22:19:26.744Z,6.63
2022-11-05T22:21:54.566Z,4.37
2022-11-05T23:36:45.477Z,8.37
2022-11-05T23:51:24.938Z,10.47
